sensor_id;sensor_type;location;lat;lon;timestamp;P1;durP1;ratioP1;P2;durP2;ratioP2
56830;SDS011;42713;42.676;23.352;2023-03-03T00:00:55;9.48;;;3.45;;
56830;SDS011;42713;42.676;23.352;2023-03-03T00:03:21;6.88;;;3.03;;
56830;SDS011;42713;42.676;23.352;2023-03-03T00:05:49;7.05;;;3.05;;
56830;SDS011;42713;42.676;23.352;2023-03-03T00:08:15;7.82;;;3.38;;
56830;SDS011;42713;42.676;23.352;2023-03-03T00:10:42;8.98;;;3.50;;
56830;SDS011;42713;42.676;23.352;2023-03-03T00:13:19;8.07;;;3.42;;
56830;SDS011;42713;42.676;23.352;2023-03-03T00:15:50;8.43;;;3.67;;
56830;SDS011;42713;42.676;23.352;2023-03-03T00:21:01;9.50;;;3.70;;
56830;SDS011;42713;42.676;23.352;2023-03-03T00:23:39;8.48;;;3.45;;
56830;SDS011;42713;42.676;23.352;2023-03-03T00:26:15;7.95;;;3.80;;
56830;SDS011;42713;42.676;23.352;2023-03-03T00:28:46;7.43;;;3.55;;
56830;SDS011;42713;42.676;23.352;2023-03-03T00:31:14;9.18;;;3.97;;
56830;SDS011;42713;42.676;23.352;2023-03-03T00:33:44;8.32;;;3.88;;
56830;SDS011;42713;42.676;23.352;2023-03-03T00:38:40;8.55;;;4.50;;
56830;SDS011;42713;42.676;23.352;2023-03-03T00:41:21;8.25;;;4.20;;
56830;SDS011;42713;42.676;23.352;2023-03-03T00:43:49;8.90;;;4.22;;
56830;SDS011;42713;42.676;23.352;2023-03-03T00:46:19;8.40;;;4.22;;
56830;SDS011;42713;42.676;23.352;2023-03-03T00:48:46;9.45;;;4.35;;
56830;SDS011;42713;42.676;23.352;2023-03-03T00:51:30;8.32;;;4.45;;
56830;SDS011;42713;42.676;23.352;2023-03-03T00:53:58;9.50;;;4.10;;
56830;SDS011;42713;42.676;23.352;2023-03-03T00:56:24;9.27;;;4.30;;
56830;SDS011;42713;42.676;23.352;2023-03-03T00:58:50;9.18;;;4.38;;
56830;SDS011;42713;42.676;23.352;2023-03-03T01:01:16;8.77;;;4.10;;
56830;SDS011;42713;42.676;23.352;2023-03-03T01:03:42;8.23;;;3.95;;
56830;SDS011;42713;42.676;23.352;2023-03-03T01:06:09;8.98;;;4.13;;
56830;SDS011;42713;42.676;23.352;2023-03-03T01:08:35;9.52;;;4.00;;
56830;SDS011;42713;42.676;23.352;2023-03-03T01:11:05;9.35;;;4.50;;
56830;SDS011;42713;42.676;23.352;2023-03-03T01:13:37;8.63;;;4.13;;
56830;SDS011;42713;42.676;23.352;2023-03-03T01:16:05;9.15;;;4.70;;
56830;SDS011;42713;42.676;23.352;2023-03-03T01:18:31;9.15;;;4.45;;
56830;SDS011;42713;42.676;23.352;2023-03-03T01:20:58;9.00;;;4.45;;
56830;SDS011;42713;42.676;23.352;2023-03-03T01:23:23;10.43;;;4.97;;
56830;SDS011;42713;42.676;23.352;2023-03-03T01:25:49;9.73;;;4.50;;
56830;SDS011;42713;42.676;23.352;2023-03-03T01:28:14;9.45;;;4.97;;
56830;SDS011;42713;42.676;23.352;2023-03-03T01:30:39;11.45;;;4.78;;
56830;SDS011;42713;42.676;23.352;2023-03-03T01:33:05;10.07;;;4.70;;
56830;SDS011;42713;42.676;23.352;2023-03-03T01:35:30;10.98;;;5.40;;
56830;SDS011;42713;42.676;23.352;2023-03-03T01:37:56;10.55;;;4.55;;
56830;SDS011;42713;42.676;23.352;2023-03-03T01:40:23;9.50;;;4.38;;
56830;SDS011;42713;42.676;23.352;2023-03-03T01:42:51;9.05;;;4.53;;
56830;SDS011;42713;42.676;23.352;2023-03-03T01:45:24;13.70;;;4.80;;
56830;SDS011;42713;42.676;23.352;2023-03-03T01:47:59;9.30;;;4.07;;
56830;SDS011;42713;42.676;23.352;2023-03-03T01:53:18;10.30;;;4.53;;
56830;SDS011;42713;42.676;23.352;2023-03-03T01:56:04;9.57;;;4.13;;
56830;SDS011;42713;42.676;23.352;2023-03-03T01:58:34;9.57;;;4.45;;
56830;SDS011;42713;42.676;23.352;2023-03-03T02:03:32;10.10;;;4.13;;
56830;SDS011;42713;42.676;23.352;2023-03-03T02:06:06;9.57;;;3.97;;
56830;SDS011;42713;42.676;23.352;2023-03-03T02:08:36;8.60;;;4.13;;
56830;SDS011;42713;42.676;23.352;2023-03-03T02:11:08;9.90;;;3.78;;
56830;SDS011;42713;42.676;23.352;2023-03-03T02:13:35;8.40;;;4.03;;
56830;SDS011;42713;42.676;23.352;2023-03-03T02:16:00;8.82;;;3.95;;
56830;SDS011;42713;42.676;23.352;2023-03-03T02:18:26;8.27;;;3.85;;
56830;SDS011;42713;42.676;23.352;2023-03-03T02:20:56;8.10;;;3.75;;
56830;SDS011;42713;42.676;23.352;2023-03-03T02:23:33;8.95;;;3.58;;
56830;SDS011;42713;42.676;23.352;2023-03-03T02:26:20;7.75;;;3.75;;
56830;SDS011;42713;42.676;23.352;2023-03-03T02:28:48;8.23;;;3.83;;
56830;SDS011;42713;42.676;23.352;2023-03-03T02:31:17;9.02;;;3.70;;
56830;SDS011;42713;42.676;23.352;2023-03-03T02:33:46;8.25;;;3.85;;
56830;SDS011;42713;42.676;23.352;2023-03-03T02:36:13;9.38;;;4.10;;
56830;SDS011;42713;42.676;23.352;2023-03-03T02:38:48;8.02;;;3.83;;
56830;SDS011;42713;42.676;23.352;2023-03-03T02:46:24;8.63;;;4.30;;
56830;SDS011;42713;42.676;23.352;2023-03-03T02:48:50;8.15;;;3.95;;
56830;SDS011;42713;42.676;23.352;2023-03-03T02:51:15;8.90;;;4.07;;
56830;SDS011;42713;42.676;23.352;2023-03-03T02:53:41;7.03;;;3.72;;
56830;SDS011;42713;42.676;23.352;2023-03-03T02:56:07;10.60;;;4.97;;
56830;SDS011;42713;42.676;23.352;2023-03-03T02:58:33;8.32;;;4.00;;
56830;SDS011;42713;42.676;23.352;2023-03-03T03:01:00;9.15;;;4.22;;
56830;SDS011;42713;42.676;23.352;2023-03-03T03:03:25;10.18;;;4.93;;
56830;SDS011;42713;42.676;23.352;2023-03-03T03:05:51;9.80;;;4.47;;
56830;SDS011;42713;42.676;23.352;2023-03-03T03:08:17;10.90;;;4.43;;
56830;SDS011;42713;42.676;23.352;2023-03-03T03:10:42;9.85;;;4.65;;
56830;SDS011;42713;42.676;23.352;2023-03-03T03:13:08;10.45;;;4.78;;
56830;SDS011;42713;42.676;23.352;2023-03-03T03:15:34;10.05;;;4.68;;
56830;SDS011;42713;42.676;23.352;2023-03-03T03:18:00;9.15;;;4.40;;
56830;SDS011;42713;42.676;23.352;2023-03-03T03:20:25;10.63;;;4.95;;
56830;SDS011;42713;42.676;23.352;2023-03-03T03:22:51;8.75;;;4.50;;
56830;SDS011;42713;42.676;23.352;2023-03-03T03:25:16;11.20;;;5.38;;
56830;SDS011;42713;42.676;23.352;2023-03-03T03:27:42;10.73;;;5.00;;
56830;SDS011;42713;42.676;23.352;2023-03-03T03:30:07;10.43;;;5.43;;
56830;SDS011;42713;42.676;23.352;2023-03-03T03:32:33;13.07;;;5.60;;
56830;SDS011;42713;42.676;23.352;2023-03-03T03:34:58;11.95;;;5.40;;
56830;SDS011;42713;42.676;23.352;2023-03-03T03:37:24;10.90;;;5.05;;
56830;SDS011;42713;42.676;23.352;2023-03-03T03:39:49;10.25;;;5.45;;
56830;SDS011;42713;42.676;23.352;2023-03-03T03:42:15;13.95;;;6.10;;
56830;SDS011;42713;42.676;23.352;2023-03-03T03:44:41;12.43;;;6.13;;
56830;SDS011;42713;42.676;23.352;2023-03-03T03:47:06;13.85;;;6.65;;
56830;SDS011;42713;42.676;23.352;2023-03-03T03:49:32;13.38;;;6.68;;
56830;SDS011;42713;42.676;23.352;2023-03-03T03:51:57;14.07;;;8.38;;
56830;SDS011;42713;42.676;23.352;2023-03-03T03:54:23;15.65;;;8.45;;
56830;SDS011;42713;42.676;23.352;2023-03-03T03:56:48;16.42;;;8.63;;
56830;SDS011;42713;42.676;23.352;2023-03-03T03:59:13;12.40;;;7.32;;
56830;SDS011;42713;42.676;23.352;2023-03-03T04:01:39;13.80;;;7.50;;
56830;SDS011;42713;42.676;23.352;2023-03-03T04:04:04;15.98;;;7.28;;
56830;SDS011;42713;42.676;23.352;2023-03-03T04:06:30;12.50;;;6.75;;
56830;SDS011;42713;42.676;23.352;2023-03-03T04:08:56;14.63;;;7.45;;
56830;SDS011;42713;42.676;23.352;2023-03-03T04:11:21;13.38;;;6.82;;
56830;SDS011;42713;42.676;23.352;2023-03-03T04:13:47;16.05;;;6.65;;
56830;SDS011;42713;42.676;23.352;2023-03-03T04:16:13;13.15;;;6.78;;
56830;SDS011;42713;42.676;23.352;2023-03-03T04:18:40;16.38;;;6.95;;
56830;SDS011;42713;42.676;23.352;2023-03-03T04:21:09;13.20;;;6.78;;
56830;SDS011;42713;42.676;23.352;2023-03-03T04:23:36;11.38;;;6.30;;
56830;SDS011;42713;42.676;23.352;2023-03-03T04:26:01;12.82;;;6.72;;
56830;SDS011;42713;42.676;23.352;2023-03-03T04:28:28;14.85;;;7.95;;
56830;SDS011;42713;42.676;23.352;2023-03-03T04:30:53;14.60;;;7.38;;
56830;SDS011;42713;42.676;23.352;2023-03-03T04:33:18;14.43;;;7.80;;
56830;SDS011;42713;42.676;23.352;2023-03-03T04:35:44;13.82;;;7.45;;
56830;SDS011;42713;42.676;23.352;2023-03-03T04:38:09;15.13;;;7.95;;
56830;SDS011;42713;42.676;23.352;2023-03-03T04:40:35;15.63;;;7.53;;
56830;SDS011;42713;42.676;23.352;2023-03-03T04:43:00;16.58;;;8.18;;
56830;SDS011;42713;42.676;23.352;2023-03-03T04:45:25;13.18;;;7.20;;
56830;SDS011;42713;42.676;23.352;2023-03-03T04:47:51;14.00;;;7.65;;
56830;SDS011;42713;42.676;23.352;2023-03-03T04:50:16;14.63;;;7.50;;
56830;SDS011;42713;42.676;23.352;2023-03-03T04:52:42;14.80;;;7.97;;
56830;SDS011;42713;42.676;23.352;2023-03-03T04:55:07;20.83;;;10.45;;
56830;SDS011;42713;42.676;23.352;2023-03-03T04:57:33;16.77;;;9.00;;
56830;SDS011;42713;42.676;23.352;2023-03-03T04:59:59;18.25;;;8.98;;
56830;SDS011;42713;42.676;23.352;2023-03-03T05:02:24;16.52;;;8.85;;
56830;SDS011;42713;42.676;23.352;2023-03-03T05:04:50;19.25;;;10.45;;
56830;SDS011;42713;42.676;23.352;2023-03-03T05:07:16;22.83;;;12.13;;
56830;SDS011;42713;42.676;23.352;2023-03-03T05:09:43;15.30;;;8.55;;
56830;SDS011;42713;42.676;23.352;2023-03-03T05:12:08;20.55;;;10.75;;
56830;SDS011;42713;42.676;23.352;2023-03-03T05:14:34;18.50;;;9.98;;
56830;SDS011;42713;42.676;23.352;2023-03-03T05:16:59;27.70;;;11.18;;
56830;SDS011;42713;42.676;23.352;2023-03-03T05:19:25;19.30;;;10.63;;
56830;SDS011;42713;42.676;23.352;2023-03-03T05:21:50;17.63;;;10.10;;
56830;SDS011;42713;42.676;23.352;2023-03-03T05:24:16;20.48;;;9.30;;
56830;SDS011;42713;42.676;23.352;2023-03-03T05:26:42;19.85;;;9.13;;
56830;SDS011;42713;42.676;23.352;2023-03-03T05:29:08;19.50;;;9.70;;
56830;SDS011;42713;42.676;23.352;2023-03-03T05:31:34;20.25;;;9.73;;
56830;SDS011;42713;42.676;23.352;2023-03-03T05:34:00;19.95;;;10.45;;
56830;SDS011;42713;42.676;23.352;2023-03-03T05:36:26;20.48;;;9.93;;
56830;SDS011;42713;42.676;23.352;2023-03-03T05:38:51;21.80;;;9.95;;
56830;SDS011;42713;42.676;23.352;2023-03-03T05:41:17;18.85;;;10.27;;
56830;SDS011;42713;42.676;23.352;2023-03-03T05:43:42;16.73;;;9.57;;
56830;SDS011;42713;42.676;23.352;2023-03-03T05:46:08;20.08;;;10.15;;
56830;SDS011;42713;42.676;23.352;2023-03-03T05:48:34;20.63;;;10.30;;
56830;SDS011;42713;42.676;23.352;2023-03-03T05:51:00;19.25;;;10.50;;
56830;SDS011;42713;42.676;23.352;2023-03-03T05:53:38;18.88;;;9.50;;
56830;SDS011;42713;42.676;23.352;2023-03-03T05:56:04;17.05;;;9.95;;
56830;SDS011;42713;42.676;23.352;2023-03-03T05:58:30;18.00;;;9.65;;
56830;SDS011;42713;42.676;23.352;2023-03-03T06:00:56;19.17;;;10.00;;
56830;SDS011;42713;42.676;23.352;2023-03-03T06:03:21;21.02;;;10.65;;
56830;SDS011;42713;42.676;23.352;2023-03-03T06:05:47;19.13;;;9.75;;
56830;SDS011;42713;42.676;23.352;2023-03-03T06:08:12;17.55;;;9.15;;
56830;SDS011;42713;42.676;23.352;2023-03-03T06:10:38;16.85;;;8.98;;
56830;SDS011;42713;42.676;23.352;2023-03-03T06:13:03;16.17;;;8.38;;
56830;SDS011;42713;42.676;23.352;2023-03-03T06:15:29;20.45;;;9.13;;
56830;SDS011;42713;42.676;23.352;2023-03-03T06:17:55;16.52;;;8.63;;
56830;SDS011;42713;42.676;23.352;2023-03-03T06:20:20;15.60;;;8.20;;
56830;SDS011;42713;42.676;23.352;2023-03-03T06:22:45;14.98;;;8.35;;
56830;SDS011;42713;42.676;23.352;2023-03-03T06:25:11;17.65;;;8.93;;
56830;SDS011;42713;42.676;23.352;2023-03-03T06:27:37;19.17;;;9.35;;
56830;SDS011;42713;42.676;23.352;2023-03-03T06:30:02;17.73;;;9.05;;
56830;SDS011;42713;42.676;23.352;2023-03-03T06:32:28;18.73;;;9.40;;
56830;SDS011;42713;42.676;23.352;2023-03-03T06:34:54;17.15;;;9.30;;
56830;SDS011;42713;42.676;23.352;2023-03-03T06:37:20;18.02;;;9.48;;
56830;SDS011;42713;42.676;23.352;2023-03-03T06:39:45;16.77;;;8.45;;
56830;SDS011;42713;42.676;23.352;2023-03-03T06:42:10;16.33;;;9.05;;
56830;SDS011;42713;42.676;23.352;2023-03-03T06:44:36;16.00;;;8.48;;
56830;SDS011;42713;42.676;23.352;2023-03-03T06:47:02;16.20;;;9.27;;
56830;SDS011;42713;42.676;23.352;2023-03-03T06:49:28;16.15;;;8.10;;
56830;SDS011;42713;42.676;23.352;2023-03-03T06:51:53;16.00;;;8.82;;
56830;SDS011;42713;42.676;23.352;2023-03-03T06:54:24;17.52;;;9.05;;
56830;SDS011;42713;42.676;23.352;2023-03-03T06:56:52;16.02;;;8.80;;
56830;SDS011;42713;42.676;23.352;2023-03-03T06:59:23;18.55;;;8.48;;
56830;SDS011;42713;42.676;23.352;2023-03-03T07:01:49;15.45;;;8.25;;
56830;SDS011;42713;42.676;23.352;2023-03-03T07:09:22;14.15;;;7.38;;
56830;SDS011;42713;42.676;23.352;2023-03-03T07:11:50;14.55;;;7.03;;
56830;SDS011;42713;42.676;23.352;2023-03-03T07:14:17;12.23;;;7.13;;
56830;SDS011;42713;42.676;23.352;2023-03-03T07:16:44;14.18;;;7.35;;
56830;SDS011;42713;42.676;23.352;2023-03-03T07:19:20;15.98;;;7.53;;
56830;SDS011;42713;42.676;23.352;2023-03-03T07:21:53;14.88;;;7.57;;
56830;SDS011;42713;42.676;23.352;2023-03-03T07:26:47;14.60;;;7.63;;
56830;SDS011;42713;42.676;23.352;2023-03-03T07:29:23;14.32;;;7.15;;
56830;SDS011;42713;42.676;23.352;2023-03-03T07:31:51;15.50;;;7.47;;
56830;SDS011;42713;42.676;23.352;2023-03-03T07:34:20;14.80;;;7.65;;
56830;SDS011;42713;42.676;23.352;2023-03-03T07:36:58;15.55;;;8.40;;
56830;SDS011;42713;42.676;23.352;2023-03-03T07:39:35;15.25;;;7.45;;
56830;SDS011;42713;42.676;23.352;2023-03-03T07:44:56;14.43;;;7.70;;
56830;SDS011;42713;42.676;23.352;2023-03-03T07:47:25;14.50;;;7.72;;
56830;SDS011;42713;42.676;23.352;2023-03-03T07:50:15;15.10;;;8.02;;
56830;SDS011;42713;42.676;23.352;2023-03-03T07:52:59;16.55;;;7.78;;
56830;SDS011;42713;42.676;23.352;2023-03-03T07:55:33;13.90;;;7.60;;
56830;SDS011;42713;42.676;23.352;2023-03-03T08:03:04;16.65;;;8.60;;
56830;SDS011;42713;42.676;23.352;2023-03-03T08:05:35;15.27;;;8.20;;
56830;SDS011;42713;42.676;23.352;2023-03-03T08:13:08;16.42;;;8.52;;
56830;SDS011;42713;42.676;23.352;2023-03-03T08:15:41;16.02;;;8.18;;
56830;SDS011;42713;42.676;23.352;2023-03-03T08:18:51;16.77;;;9.38;;
56830;SDS011;42713;42.676;23.352;2023-03-03T08:21:16;16.88;;;9.27;;
56830;SDS011;42713;42.676;23.352;2023-03-03T08:23:44;16.25;;;8.50;;
56830;SDS011;42713;42.676;23.352;2023-03-03T08:26:09;16.25;;;8.32;;
56830;SDS011;42713;42.676;23.352;2023-03-03T08:28:38;19.08;;;9.77;;
56830;SDS011;42713;42.676;23.352;2023-03-03T08:31:05;15.45;;;8.60;;
56830;SDS011;42713;42.676;23.352;2023-03-03T08:33:30;16.77;;;9.02;;
56830;SDS011;42713;42.676;23.352;2023-03-03T08:35:56;17.42;;;9.32;;
56830;SDS011;42713;42.676;23.352;2023-03-03T08:38:23;17.52;;;9.80;;
56830;SDS011;42713;42.676;23.352;2023-03-03T08:40:48;18.05;;;9.75;;
56830;SDS011;42713;42.676;23.352;2023-03-03T08:43:14;15.43;;;8.55;;
56830;SDS011;42713;42.676;23.352;2023-03-03T08:45:46;18.40;;;9.57;;
56830;SDS011;42713;42.676;23.352;2023-03-03T08:48:13;17.98;;;9.88;;
56830;SDS011;42713;42.676;23.352;2023-03-03T08:50:40;18.55;;;10.18;;
56830;SDS011;42713;42.676;23.352;2023-03-03T08:53:07;20.23;;;9.85;;
56830;SDS011;42713;42.676;23.352;2023-03-03T08:55:33;17.73;;;8.65;;
56830;SDS011;42713;42.676;23.352;2023-03-03T08:57:59;22.15;;;9.43;;
56830;SDS011;42713;42.676;23.352;2023-03-03T09:00:24;19.52;;;8.93;;
56830;SDS011;42713;42.676;23.352;2023-03-03T09:02:51;19.85;;;9.38;;
56830;SDS011;42713;42.676;23.352;2023-03-03T09:05:17;17.75;;;8.38;;
56830;SDS011;42713;42.676;23.352;2023-03-03T09:07:44;17.92;;;9.27;;
56830;SDS011;42713;42.676;23.352;2023-03-03T09:10:25;17.20;;;9.15;;
56830;SDS011;42713;42.676;23.352;2023-03-03T09:12:55;17.42;;;8.13;;
56830;SDS011;42713;42.676;23.352;2023-03-03T09:15:27;17.20;;;8.32;;
56830;SDS011;42713;42.676;23.352;2023-03-03T09:18:28;16.63;;;8.10;;
56830;SDS011;42713;42.676;23.352;2023-03-03T09:20:51;13.80;;;7.07;;
56830;SDS011;42713;42.676;23.352;2023-03-03T09:23:36;17.00;;;7.22;;
56830;SDS011;42713;42.676;23.352;2023-03-03T09:26:22;15.02;;;6.88;;
56830;SDS011;42713;42.676;23.352;2023-03-03T09:31:44;14.57;;;7.13;;
56830;SDS011;42713;42.676;23.352;2023-03-03T09:34:19;15.07;;;7.43;;
56830;SDS011;42713;42.676;23.352;2023-03-03T09:37:10;15.20;;;7.63;;
56830;SDS011;42713;42.676;23.352;2023-03-03T09:39:43;15.05;;;7.43;;
56830;SDS011;42713;42.676;23.352;2023-03-03T09:47:53;14.83;;;7.77;;
56830;SDS011;42713;42.676;23.352;2023-03-03T09:51:05;14.18;;;7.40;;
56830;SDS011;42713;42.676;23.352;2023-03-03T09:56:12;15.55;;;7.88;;
56830;SDS011;42713;42.676;23.352;2023-03-03T10:13:06;13.88;;;7.18;;
56830;SDS011;42713;42.676;23.352;2023-03-03T10:15:53;14.10;;;7.63;;
56830;SDS011;42713;42.676;23.352;2023-03-03T10:19:01;12.80;;;6.97;;
56830;SDS011;42713;42.676;23.352;2023-03-03T10:21:49;15.38;;;7.10;;
56830;SDS011;42713;42.676;23.352;2023-03-03T10:24:28;13.20;;;7.05;;
56830;SDS011;42713;42.676;23.352;2023-03-03T10:32:34;16.33;;;8.23;;
56830;SDS011;42713;42.676;23.352;2023-03-03T10:38:09;14.75;;;7.72;;
56830;SDS011;42713;42.676;23.352;2023-03-03T10:52:36;15.10;;;8.38;;
56830;SDS011;42713;42.676;23.352;2023-03-03T10:55:13;14.88;;;7.90;;
56830;SDS011;42713;42.676;23.352;2023-03-03T11:00:27;12.52;;;7.30;;
56830;SDS011;42713;42.676;23.352;2023-03-03T11:03:05;14.45;;;7.60;;
56830;SDS011;42713;42.676;23.352;2023-03-03T11:05:59;15.45;;;8.32;;
56830;SDS011;42713;42.676;23.352;2023-03-03T11:08:27;17.45;;;8.23;;
56830;SDS011;42713;42.676;23.352;2023-03-03T11:13:44;14.75;;;7.63;;
56830;SDS011;42713;42.676;23.352;2023-03-03T11:24:41;15.95;;;8.30;;
56830;SDS011;42713;42.676;23.352;2023-03-03T11:30:00;15.10;;;8.02;;
56830;SDS011;42713;42.676;23.352;2023-03-03T11:35:25;14.80;;;8.43;;
56830;SDS011;42713;42.676;23.352;2023-03-03T11:38:23;15.43;;;8.93;;
56830;SDS011;42713;42.676;23.352;2023-03-03T11:44:11;15.82;;;8.70;;
56830;SDS011;42713;42.676;23.352;2023-03-03T11:46:47;17.20;;;9.45;;
56830;SDS011;42713;42.676;23.352;2023-03-03T11:49:37;15.70;;;8.77;;
56830;SDS011;42713;42.676;23.352;2023-03-03T11:52:19;18.88;;;9.20;;
56830;SDS011;42713;42.676;23.352;2023-03-03T11:55:08;16.92;;;9.23;;
56830;SDS011;42713;42.676;23.352;2023-03-03T12:00:25;19.23;;;10.70;;
56830;SDS011;42713;42.676;23.352;2023-03-03T12:05:39;17.65;;;10.88;;
56830;SDS011;42713;42.676;23.352;2023-03-03T12:11:19;19.77;;;11.23;;
56830;SDS011;42713;42.676;23.352;2023-03-03T12:24:43;21.05;;;12.65;;
56830;SDS011;42713;42.676;23.352;2023-03-03T12:27:18;21.63;;;12.77;;
56830;SDS011;42713;42.676;23.352;2023-03-03T12:30:01;28.90;;;15.77;;
56830;SDS011;42713;42.676;23.352;2023-03-03T12:40:34;22.23;;;12.65;;
56830;SDS011;42713;42.676;23.352;2023-03-03T12:48:37;20.30;;;12.55;;
56830;SDS011;42713;42.676;23.352;2023-03-03T12:57:15;19.87;;;11.47;;
56830;SDS011;42713;42.676;23.352;2023-03-03T13:00:21;19.77;;;11.82;;
56830;SDS011;42713;42.676;23.352;2023-03-03T13:05:21;18.70;;;9.75;;
56830;SDS011;42713;42.676;23.352;2023-03-03T13:08:02;14.07;;;8.13;;
56830;SDS011;42713;42.676;23.352;2023-03-03T13:10:49;15.63;;;8.27;;
56830;SDS011;42713;42.676;23.352;2023-03-03T13:21:30;14.57;;;7.50;;
56830;SDS011;42713;42.676;23.352;2023-03-03T13:24:33;20.48;;;7.68;;
56830;SDS011;42713;42.676;23.352;2023-03-03T13:27:19;12.55;;;7.75;;
56830;SDS011;42713;42.676;23.352;2023-03-03T13:29:53;13.95;;;6.60;;
56830;SDS011;42713;42.676;23.352;2023-03-03T13:32:30;14.60;;;6.78;;
56830;SDS011;42713;42.676;23.352;2023-03-03T13:38:17;12.75;;;6.40;;
56830;SDS011;42713;42.676;23.352;2023-03-03T13:43:29;9.50;;;5.63;;
56830;SDS011;42713;42.676;23.352;2023-03-03T13:46:12;13.02;;;6.50;;
56830;SDS011;42713;42.676;23.352;2023-03-03T13:48:46;12.35;;;5.85;;
56830;SDS011;42713;42.676;23.352;2023-03-03T13:51:40;11.75;;;6.38;;
56830;SDS011;42713;42.676;23.352;2023-03-03T14:07:27;12.02;;;6.63;;
56830;SDS011;42713;42.676;23.352;2023-03-03T14:10:19;12.43;;;6.72;;
56830;SDS011;42713;42.676;23.352;2023-03-03T14:13:10;12.43;;;7.20;;
56830;SDS011;42713;42.676;23.352;2023-03-03T14:20:58;15.00;;;8.23;;
56830;SDS011;42713;42.676;23.352;2023-03-03T14:26:19;13.23;;;8.07;;
56830;SDS011;42713;42.676;23.352;2023-03-03T14:28:46;13.38;;;7.63;;
56830;SDS011;42713;42.676;23.352;2023-03-03T14:31:19;17.33;;;8.23;;
56830;SDS011;42713;42.676;23.352;2023-03-03T14:34:00;14.35;;;7.75;;
56830;SDS011;42713;42.676;23.352;2023-03-03T14:36:44;13.00;;;7.30;;
56830;SDS011;42713;42.676;23.352;2023-03-03T14:39:24;12.68;;;7.18;;
56830;SDS011;42713;42.676;23.352;2023-03-03T14:41:56;14.07;;;7.82;;
56830;SDS011;42713;42.676;23.352;2023-03-03T14:44:31;13.40;;;7.72;;
56830;SDS011;42713;42.676;23.352;2023-03-03T14:47:15;13.30;;;7.28;;
56830;SDS011;42713;42.676;23.352;2023-03-03T14:49:46;12.70;;;7.32;;
56830;SDS011;42713;42.676;23.352;2023-03-03T14:54:44;13.00;;;6.32;;
56830;SDS011;42713;42.676;23.352;2023-03-03T14:57:14;11.88;;;6.03;;
56830;SDS011;42713;42.676;23.352;2023-03-03T15:00:01;12.85;;;6.60;;
56830;SDS011;42713;42.676;23.352;2023-03-03T15:03:02;12.15;;;7.03;;
56830;SDS011;42713;42.676;23.352;2023-03-03T15:05:33;10.93;;;5.97;;
56830;SDS011;42713;42.676;23.352;2023-03-03T15:12:56;13.48;;;7.70;;
56830;SDS011;42713;42.676;23.352;2023-03-03T15:15:25;15.98;;;7.20;;
56830;SDS011;42713;42.676;23.352;2023-03-03T15:18:00;12.52;;;6.93;;
56830;SDS011;42713;42.676;23.352;2023-03-03T15:31:04;13.05;;;6.70;;
56830;SDS011;42713;42.676;23.352;2023-03-03T15:39:35;12.25;;;6.97;;
56830;SDS011;42713;42.676;23.352;2023-03-03T15:42:11;11.63;;;6.30;;
56830;SDS011;42713;42.676;23.352;2023-03-03T15:53:33;14.38;;;7.40;;
56830;SDS011;42713;42.676;23.352;2023-03-03T16:04:33;13.35;;;7.88;;
56830;SDS011;42713;42.676;23.352;2023-03-03T16:07:09;13.10;;;7.53;;
56830;SDS011;42713;42.676;23.352;2023-03-03T16:15:36;12.30;;;7.25;;
56830;SDS011;42713;42.676;23.352;2023-03-03T16:21:22;13.40;;;7.15;;
56830;SDS011;42713;42.676;23.352;2023-03-03T16:30:10;13.07;;;7.75;;
56830;SDS011;42713;42.676;23.352;2023-03-03T16:35:24;13.50;;;8.00;;
56830;SDS011;42713;42.676;23.352;2023-03-03T16:37:56;13.52;;;7.38;;
56830;SDS011;42713;42.676;23.352;2023-03-03T16:40:32;11.57;;;6.57;;
56830;SDS011;42713;42.676;23.352;2023-03-03T16:43:18;12.15;;;6.78;;
56830;SDS011;42713;42.676;23.352;2023-03-03T16:45:48;10.45;;;5.30;;
56830;SDS011;42713;42.676;23.352;2023-03-03T16:50:53;10.73;;;5.75;;
56830;SDS011;42713;42.676;23.352;2023-03-03T16:56:12;11.35;;;5.80;;
56830;SDS011;42713;42.676;23.352;2023-03-03T16:58:44;18.13;;;9.43;;
56830;SDS011;42713;42.676;23.352;2023-03-03T17:17:00;11.27;;;6.05;;
56830;SDS011;42713;42.676;23.352;2023-03-03T17:19:55;11.25;;;6.35;;
56830;SDS011;42713;42.676;23.352;2023-03-03T17:22:36;10.98;;;5.60;;
56830;SDS011;42713;42.676;23.352;2023-03-03T17:25:16;13.05;;;6.65;;
56830;SDS011;42713;42.676;23.352;2023-03-03T17:35:57;12.05;;;6.75;;
56830;SDS011;42713;42.676;23.352;2023-03-03T18:11:43;16.23;;;7.65;;
56830;SDS011;42713;42.676;23.352;2023-03-03T18:22:52;17.05;;;7.90;;
56830;SDS011;42713;42.676;23.352;2023-03-03T18:25:25;15.30;;;7.80;;
56830;SDS011;42713;42.676;23.352;2023-03-03T18:28:22;14.35;;;7.95;;
56830;SDS011;42713;42.676;23.352;2023-03-03T18:31:01;14.43;;;7.72;;
56830;SDS011;42713;42.676;23.352;2023-03-03T18:33:41;17.23;;;8.18;;
56830;SDS011;42713;42.676;23.352;2023-03-03T18:38:50;16.05;;;8.45;;
56830;SDS011;42713;42.676;23.352;2023-03-03T18:41:25;17.50;;;8.52;;
56830;SDS011;42713;42.676;23.352;2023-03-03T18:43:56;14.35;;;7.95;;
56830;SDS011;42713;42.676;23.352;2023-03-03T18:49:02;19.17;;;7.63;;
56830;SDS011;42713;42.676;23.352;2023-03-03T18:54:00;15.55;;;8.00;;
56830;SDS011;42713;42.676;23.352;2023-03-03T19:04:36;19.92;;;9.55;;
56830;SDS011;42713;42.676;23.352;2023-03-03T19:07:24;18.65;;;9.95;;
56830;SDS011;42713;42.676;23.352;2023-03-03T19:18:00;20.45;;;9.60;;
56830;SDS011;42713;42.676;23.352;2023-03-03T19:23:20;18.35;;;9.05;;
56830;SDS011;42713;42.676;23.352;2023-03-03T19:28:44;19.50;;;9.10;;
56830;SDS011;42713;42.676;23.352;2023-03-03T19:36:27;14.73;;;7.53;;
56830;SDS011;42713;42.676;23.352;2023-03-03T19:39:19;15.65;;;7.28;;
56830;SDS011;42713;42.676;23.352;2023-03-03T19:42:24;13.00;;;6.75;;
56830;SDS011;42713;42.676;23.352;2023-03-03T19:45:04;16.65;;;8.02;;
56830;SDS011;42713;42.676;23.352;2023-03-03T19:53:37;14.32;;;7.55;;
56830;SDS011;42713;42.676;23.352;2023-03-03T20:10:03;11.18;;;5.90;;
56830;SDS011;42713;42.676;23.352;2023-03-03T20:15:10;11.32;;;5.53;;
56830;SDS011;42713;42.676;23.352;2023-03-03T20:28:49;10.88;;;5.45;;
56830;SDS011;42713;42.676;23.352;2023-03-03T20:34:19;11.88;;;5.30;;
56830;SDS011;42713;42.676;23.352;2023-03-03T20:36:55;11.65;;;5.47;;
56830;SDS011;42713;42.676;23.352;2023-03-03T20:45:40;11.20;;;4.82;;
56830;SDS011;42713;42.676;23.352;2023-03-03T20:50:52;15.35;;;5.75;;
56830;SDS011;42713;42.676;23.352;2023-03-03T20:53:25;11.10;;;5.43;;
56830;SDS011;42713;42.676;23.352;2023-03-03T20:58:58;12.65;;;5.90;;
56830;SDS011;42713;42.676;23.352;2023-03-03T21:01:45;10.10;;;5.35;;
56830;SDS011;42713;42.676;23.352;2023-03-03T21:04:25;13.07;;;6.00;;
56830;SDS011;42713;42.676;23.352;2023-03-03T21:06:55;10.95;;;6.50;;
56830;SDS011;42713;42.676;23.352;2023-03-03T21:09:28;10.00;;;5.28;;
56830;SDS011;42713;42.676;23.352;2023-03-03T21:11:57;11.27;;;5.68;;
56830;SDS011;42713;42.676;23.352;2023-03-03T21:14:26;10.63;;;5.72;;
56830;SDS011;42713;42.676;23.352;2023-03-03T21:16:53;11.63;;;5.32;;
56830;SDS011;42713;42.676;23.352;2023-03-03T21:19:28;15.45;;;5.90;;
56830;SDS011;42713;42.676;23.352;2023-03-03T21:21:58;14.07;;;6.70;;
56830;SDS011;42713;42.676;23.352;2023-03-03T21:30:04;12.63;;;5.75;;